Time;durP1;ratioP1;P1;durP2;ratioP2;P2;SDS_P1;SDS_P2;PMS_P1;PMS_P2;Temp;Humidity;BMP_temperature;BMP_pressure;BME280_temperature;BME280_humidity;BME280_pressure;Samples;Min_cycle;Max_cycle;Signal;HPM_P1;HPM_P2
2022/01/26 00:07:50;;;;;;;17.23;9.90;;;1.40;99.90;;;;;;5015154;28;20213;-70
2022/01/26 00:10:16;;;;;;;22.20;10.30;;;1.40;99.90;;;;;;5015414;28;20205;-71
2022/01/26 00:12:42;;;;;;;19.67;10.53;;;1.30;99.90;;;;;;5015395;28;20194;-72
2022/01/26 00:15:08;;;;;;;20.93;12.00;;;1.30;99.90;;;;;;5015482;28;20629;-72
2022/01/26 00:17:33;;;;;;;24.70;8.80;;;1.20;99.90;;;;;;5015381;28;20257;-70
2022/01/26 00:20:48;;;;;;;22.90;9.57;;;1.20;99.90;;;;;;5015042;28;20282;-71
2022/01/26 00:25:37;;;;;;;21.00;8.73;;;1.20;99.90;;;;;;5015168;28;20270;-72
2022/01/26 00:28:32;;;;;;;30.67;13.07;;;1.20;99.90;;;;;;5013369;28;20516;-71
2022/01/26 00:38:53;;;;;;;15.75;8.00;;;1.10;99.90;;;;;;5014802;28;20265;-71
2022/01/26 00:41:34;;;;;;;27.15;10.05;;;1.10;99.90;;;;;;5014871;28;20185;-71
2022/01/26 00:44:00;;;;;;;16.77;8.20;;;1.20;99.90;;;;;;5015218;28;20171;-72
2022/01/26 00:46:26;;;;;;;24.20;12.85;;;1.20;99.90;;;;;;5014899;28;20186;-72
2022/01/26 00:48:52;;;;;;;18.85;9.55;;;1.20;99.90;;;;;;5013330;28;20674;-70
2022/01/26 00:51:20;;;;;;;13.83;10.10;;;1.20;99.90;;;;;;5014522;28;20186;-71
2022/01/26 00:53:52;;;;;;;26.15;13.18;;;1.20;99.90;;;;;;5014692;28;20479;-70
2022/01/26 00:56:18;;;;;;;19.85;10.20;;;1.20;99.90;;;;;;5014693;28;20163;-71
2022/01/26 00:58:44;;;;;;;18.03;10.97;;;1.20;99.90;;;;;;5013879;28;20205;-72
2022/01/26 01:01:10;;;;;;;25.13;14.77;;;1.20;99.90;;;;;;5014254;28;20908;-71
2022/01/26 01:03:40;;;;;;;16.42;10.70;;;1.20;99.90;;;;;;5014536;28;20170;-71
2022/01/26 01:06:30;;;;;;;21.45;8.77;;;1.20;99.90;;;;;;5014546;28;20521;-72
2022/01/26 01:08:54;;;;;;;30.83;9.98;;;1.20;99.90;;;;;;5013530;28;20202;-72
2022/01/26 01:11:20;;;;;;;20.15;11.20;;;1.20;99.90;;;;;;5014511;28;20170;-71
2022/01/26 01:13:47;;;;;;;24.40;12.80;;;1.20;99.90;;;;;;5014508;28;20178;-72
2022/01/26 01:16:19;;;;;;;18.67;8.27;;;1.20;99.90;;;;;;5014582;28;20494;-72
2022/01/26 01:18:53;;;;;;;28.67;11.07;;;1.20;99.90;;;;;;5013813;28;20183;-71
2022/01/26 01:29:26;;;;;;;24.30;13.57;;;1.20;99.90;;;;;;4991727;28;20732;-71
2022/01/26 01:31:56;;;;;;;19.50;12.73;;;1.10;99.90;;;;;;4992349;28;20234;-72
2022/01/26 01:34:30;;;;;;;22.58;10.32;;;1.10;99.90;;;;;;4992307;28;20180;-71
2022/01/26 01:37:02;;;;;;;19.30;10.70;;;1.10;99.90;;;;;;4992615;28;20175;-72
2022/01/26 01:39:30;;;;;;;34.78;12.35;;;1.20;99.90;;;;;;4991746;28;20260;-74
2022/01/26 01:41:56;;;;;;;21.98;10.27;;;1.20;99.90;;;;;;4992308;28;20170;-73
2022/01/26 01:44:22;;;;;;;15.93;7.83;;;1.20;99.90;;;;;;4992404;28;20258;-71
2022/01/26 01:46:48;;;;;;;25.30;11.60;;;1.20;99.90;;;;;;4992213;28;20829;-70
2022/01/26 01:49:15;;;;;;;24.63;10.05;;;1.20;99.90;;;;;;4991613;28;20526;-72
2022/01/26 01:51:47;;;;;;;21.30;9.18;;;1.20;99.90;;;;;;4992019;28;20199;-72
2022/01/26 01:54:16;;;;;;;19.17;11.77;;;1.20;99.90;;;;;;4992521;28;20658;-73
2022/01/26 01:56:44;;;;;;;40.10;13.57;;;1.20;99.90;;;;;;4991980;28;20591;-72
2022/01/26 01:59:11;;;;;;;27.42;10.80;;;1.30;99.90;;;;;;4990932;28;20191;-72
2022/01/26 02:01:37;;;;;;;23.80;9.70;;;1.20;99.90;;;;;;4992287;28;20259;-72
2022/01/26 02:04:03;;;;;;;29.60;9.27;;;1.20;99.90;;;;;;4993886;28;20178;-72
2022/01/26 02:06:28;;;;;;;18.75;9.95;;;1.20;99.90;;;;;;4994077;28;20642;-73
2022/01/26 02:08:54;;;;;;;17.73;13.13;;;1.20;99.90;;;;;;4993710;28;20202;-71
2022/01/26 02:11:19;;;;;;;21.37;11.17;;;1.20;99.90;;;;;;4993996;28;20191;-72
2022/01/26 02:13:59;;;;;;;10.70;8.43;;;1.20;99.90;;;;;;4994085;28;20222;-73
2022/01/26 02:19:19;;;;;;;39.20;12.80;;;1.20;99.90;;;;;;4993476;28;20269;-71
2022/01/26 02:56:45;;;;;;;26.53;12.53;;;1.40;99.90;;;;;;5013202;28;20174;-71
2022/01/26 03:06:45;;;;;;;11.80;8.65;;;1.30;99.90;;;;;;5012930;28;20186;-71
2022/01/26 03:09:14;;;;;;;11.70;8.75;;;1.20;99.90;;;;;;5012702;28;20194;-72
2022/01/26 03:11:43;;;;;;;21.02;9.75;;;1.10;99.90;;;;;;5013613;28;20672;-72
2022/01/26 03:14:35;;;;;;;12.27;9.18;;;1.00;99.90;;;;;;5015606;28;20277;-71
2022/01/26 03:17:05;;;;;;;12.32;9.55;;;1.00;99.90;;;;;;5017055;28;20175;-72
2022/01/26 03:20:08;;;;;;;12.57;7.93;;;1.00;99.90;;;;;;5016263;28;20189;-71
2022/01/26 03:31:06;;;;;;;18.17;8.55;;;0.90;99.90;;;;;;5016560;28;20206;-73
2022/01/26 03:36:11;;;;;;;9.18;5.55;;;0.90;99.90;;;;;;5017427;28;20170;-72
2022/01/26 03:38:44;;;;;;;15.20;9.35;;;0.90;99.90;;;;;;5018506;28;20249;-72
2022/01/26 03:43:56;;;;;;;15.27;8.40;;;0.90;99.90;;;;;;5020506;28;20718;-69
2022/01/26 03:46:22;;;;;;;16.77;9.95;;;0.90;99.90;;;;;;5018454;28;20174;-71
2022/01/26 03:48:48;;;;;;;12.03;8.00;;;0.80;99.90;;;;;;5016323;28;20214;-72
2022/01/26 03:51:14;;;;;;;12.93;7.97;;;0.80;99.90;;;;;;5026715;28;20437;-72
2022/01/26 03:53:41;;;;;;;8.05;6.72;;;0.80;99.90;;;;;;5015792;28;21000;-70
2022/01/26 03:56:07;;;;;;;14.17;8.80;;;0.80;99.90;;;;;;4997578;28;20174;-71
2022/01/26 03:58:33;;;;;;;12.97;7.17;;;0.90;99.90;;;;;;5012293;28;20461;-71
2022/01/26 04:00:58;;;;;;;21.40;10.60;;;0.90;99.90;;;;;;5024489;28;20404;-70
2022/01/26 04:03:24;;;;;;;14.17;8.57;;;0.90;99.90;;;;;;5038222;28;20277;-72
2022/01/26 04:05:49;;;;;;;20.80;10.60;;;0.90;99.90;;;;;;5018167;28;20178;-70
2022/01/26 04:08:21;;;;;;;7.50;6.57;;;0.90;99.90;;;;;;5016016;28;20174;-71
2022/01/26 04:11:08;;;;;;;12.10;7.75;;;0.90;99.90;;;;;;5016507;28;20232;-72
2022/01/26 04:13:34;;;;;;;9.70;7.13;;;1.00;99.90;;;;;;5030806;28;20251;-72
2022/01/26 04:16:00;;;;;;;14.57;9.67;;;0.90;99.90;;;;;;5015711;28;20202;-71
2022/01/26 04:18:32;;;;;;;9.40;8.60;;;0.90;99.90;;;;;;5015277;28;20530;-71
2022/01/26 04:21:03;;;;;;;14.00;6.45;;;0.90;99.90;;;;;;5013993;28;20467;-71
2022/01/26 04:23:41;;;;;;;13.65;8.73;;;0.90;99.90;;;;;;5015427;28;20264;-71
2022/01/26 04:26:07;;;;;;;16.77;10.90;;;1.00;99.90;;;;;;5015393;28;20178;-72
2022/01/26 04:28:43;;;;;;;11.00;6.60;;;0.90;99.90;;;;;;5014654;28;20179;-71
2022/01/26 04:31:09;;;;;;;17.58;9.05;;;1.00;99.90;;;;;;5015042;28;20768;-72
2022/01/26 04:33:36;;;;;;;20.45;11.18;;;1.00;99.90;;;;;;5015339;28;20201;-71
2022/01/26 04:36:06;;;;;;;15.57;10.40;;;1.10;99.90;;;;;;5015254;28;20167;-72
2022/01/26 04:38:43;;;;;;;12.93;9.93;;;1.10;99.90;;;;;;5014851;28;20558;-72
2022/01/26 04:41:29;;;;;;;13.10;9.02;;;1.10;99.90;;;;;;5014940;28;20685;-71
2022/01/26 04:44:00;;;;;;;9.60;6.40;;;1.10;99.90;;;;;;5015060;28;20163;-71
2022/01/26 04:46:26;;;;;;;14.55;8.27;;;1.10;99.90;;;;;;5015097;28;20177;-71
2022/01/26 04:48:52;;;;;;;16.93;8.20;;;1.00;99.90;;;;;;5015296;28;20183;-70
2022/01/26 04:51:18;;;;;;;20.20;8.93;;;1.00;99.90;;;;;;5015052;28;20852;-69
2022/01/26 04:53:44;;;;;;;10.60;8.20;;;1.00;99.90;;;;;;5007584;28;20205;-71
2022/01/26 04:56:10;;;;;;;10.90;9.80;;;1.00;99.90;;;;;;4995458;28;20395;-72
2022/01/26 04:58:36;;;;;;;9.82;7.28;;;1.00;99.90;;;;;;5009301;28;20648;-70
2022/01/26 05:01:02;;;;;;;11.73;7.07;;;1.00;99.90;;;;;;5014784;28;20164;-70
2022/01/26 05:03:28;;;;;;;20.40;9.73;;;1.00;99.90;;;;;;5014547;28;20217;-72
2022/01/26 05:05:53;;;;;;;22.90;8.20;;;1.00;99.90;;;;;;5014641;28;20510;-70
2022/01/26 05:08:19;;;;;;;19.80;9.67;;;1.10;99.90;;;;;;5014371;28;20581;-70
2022/01/26 05:10:45;;;;;;;6.33;5.73;;;1.10;99.90;;;;;;5013152;28;20195;-70
2022/01/26 05:13:13;;;;;;;13.07;7.37;;;1.10;99.90;;;;;;5014404;28;20191;-70
2022/01/26 05:15:39;;;;;;;11.25;7.90;;;1.10;99.90;;;;;;5014708;28;20409;-70
2022/01/26 05:18:06;;;;;;;18.57;8.17;;;1.00;99.90;;;;;;5013889;28;20224;-70
2022/01/26 05:20:33;;;;;;;22.67;10.10;;;1.00;99.90;;;;;;5014378;28;20600;-70
2022/01/26 05:22:59;;;;;;;31.23;8.02;;;1.00;99.90;;;;;;5014663;28;20534;-70
2022/01/26 05:25:24;;;;;;;20.27;8.80;;;1.00;99.90;;;;;;5014203;28;20184;-71
2022/01/26 05:27:50;;;;;;;16.30;7.70;;;1.00;99.90;;;;;;5012064;28;20185;-71
2022/01/26 05:30:16;;;;;;;12.23;7.67;;;1.00;99.90;;;;;;5013952;28;20700;-71
2022/01/26 05:32:42;;;;;;;29.40;9.90;;;1.00;99.90;;;;;;5014141;28;20493;-70
2022/01/26 05:35:08;;;;;;;11.60;7.13;;;1.10;99.90;;;;;;5013665;28;20401;-69
2022/01/26 05:37:34;;;;;;;16.05;8.60;;;1.10;99.90;;;;;;5013790;28;20241;-71
2022/01/26 05:40:02;;;;;;;15.23;7.83;;;1.20;99.90;;;;;;5012307;28;20195;-71
2022/01/26 05:42:27;;;;;;;20.00;9.90;;;1.20;99.90;;;;;;5013889;28;20410;-71
2022/01/26 05:44:58;;;;;;;13.37;7.23;;;1.20;99.90;;;;;;5013990;28;20545;-71
2022/01/26 05:47:24;;;;;;;12.10;7.30;;;1.20;99.90;;;;;;5013816;28;20604;-70
2022/01/26 05:49:50;;;;;;;13.30;7.50;;;1.20;99.90;;;;;;5013064;28;20222;-71
2022/01/26 05:52:15;;;;;;;13.13;8.30;;;1.20;99.90;;;;;;5013918;28;20325;-71
2022/01/26 05:54:41;;;;;;;12.03;8.10;;;1.20;99.90;;;;;;4998760;28;20171;-71
2022/01/26 05:57:07;;;;;;;12.93;8.20;;;1.20;99.90;;;;;;4996591;28;20234;-71
2022/01/26 05:59:33;;;;;;;12.83;8.63;;;1.20;99.90;;;;;;5012972;28;20628;-72
2022/01/26 06:01:58;;;;;;;8.77;7.77;;;1.10;99.90;;;;;;5012218;28;20625;-70
2022/01/26 06:04:24;;;;;;;11.10;7.10;;;1.10;99.90;;;;;;5028793;28;20418;-72
2022/01/26 06:06:50;;;;;;;10.20;7.07;;;1.20;99.90;;;;;;5011840;28;20191;-70
2022/01/26 06:09:16;;;;;;;12.73;7.73;;;1.20;99.90;;;;;;5013064;28;20801;-70
2022/01/26 06:11:41;;;;;;;12.47;7.90;;;1.20;99.90;;;;;;5013752;28;20178;-71
2022/01/26 06:14:07;;;;;;;10.90;6.83;;;1.30;99.90;;;;;;5012248;28;20510;-71
2022/01/26 06:16:33;;;;;;;21.47;8.97;;;1.20;99.90;;;;;;5012868;28;20283;-70
2022/01/26 06:18:58;;;;;;;11.77;8.20;;;1.20;99.90;;;;;;5013124;28;20661;-70
2022/01/26 06:21:24;;;;;;;9.00;8.17;;;1.20;99.90;;;;;;5012188;28;20167;-74
2022/01/26 06:23:49;;;;;;;16.43;8.53;;;1.20;99.90;;;;;;5012863;28;20696;-72
2022/01/26 06:26:15;;;;;;;12.90;7.80;;;1.20;99.90;;;;;;5009584;28;20254;-71
2022/01/26 06:28:41;;;;;;;13.53;6.43;;;1.20;99.90;;;;;;5017137;28;20206;-70
2022/01/26 06:31:11;;;;;;;17.67;10.33;;;1.20;99.90;;;;;;5012262;28;20178;-70
2022/01/26 06:33:39;;;;;;;13.93;6.80;;;1.20;99.90;;;;;;5013005;28;20202;-73
2022/01/26 06:36:05;;;;;;;11.73;8.52;;;1.20;99.90;;;;;;5013195;28;20602;-73
2022/01/26 06:38:31;;;;;;;18.70;9.10;;;1.30;99.90;;;;;;5012543;28;20185;-74
2022/01/26 06:40:59;;;;;;;19.77;7.60;;;1.20;99.90;;;;;;5012779;28;20421;-74
2022/01/26 06:43:28;;;;;;;10.40;6.72;;;1.30;99.90;;;;;;5012762;28;20183;-74
2022/01/26 06:46:00;;;;;;;17.35;9.68;;;1.20;99.90;;;;;;5013042;28;20265;-75
2022/01/26 06:51:03;;;;;;;16.92;8.30;;;1.30;99.90;;;;;;5016750;28;20676;-75
2022/01/26 06:53:29;;;;;;;15.20;8.73;;;1.20;99.90;;;;;;5016891;28;20203;-74
2022/01/26 06:55:56;;;;;;;18.53;10.23;;;1.20;99.90;;;;;;5017034;28;20182;-74
2022/01/26 06:58:22;;;;;;;11.82;8.38;;;1.10;99.90;;;;;;5015909;28;20186;-72
2022/01/26 07:00:48;;;;;;;11.87;8.77;;;1.10;99.90;;;;;;5016406;28;20174;-74
2022/01/26 07:03:14;;;;;;;13.23;9.00;;;1.20;99.90;;;;;;5016664;28;20421;-74
2022/01/26 07:05:40;;;;;;;10.03;7.57;;;1.20;99.90;;;;;;5016417;28;20545;-74
2022/01/26 07:08:06;;;;;;;6.88;5.90;;;1.20;99.90;;;;;;5016264;28;20854;-74
2022/01/26 07:10:32;;;;;;;20.30;10.40;;;1.20;99.90;;;;;;5016802;28;20288;-73
2022/01/26 07:12:58;;;;;;;20.47;9.07;;;1.30;99.90;;;;;;5016248;28;20205;-75
2022/01/26 07:23:31;;;;;;;22.90;8.88;;;1.30;99.90;;;;;;5016949;28;20224;-75
2022/01/26 07:25:57;;;;;;;15.90;9.83;;;1.30;99.90;;;;;;5016424;28;20175;-75
2022/01/26 07:28:23;;;;;;;14.57;9.53;;;1.40;99.90;;;;;;5015663;28;20190;-75
2022/01/26 07:30:50;;;;;;;11.20;7.73;;;1.30;99.90;;;;;;5016091;28;20182;-75
2022/01/26 07:33:16;;;;;;;10.05;7.93;;;1.30;99.90;;;;;;5016057;28;20198;-75
2022/01/26 07:35:41;;;;;;;9.20;7.30;;;1.20;99.90;;;;;;5016148;28;20250;-75
2022/01/26 07:38:07;;;;;;;9.83;7.10;;;1.20;99.90;;;;;;5014538;28;20182;-74
2022/01/26 07:40:33;;;;;;;16.27;10.50;;;1.20;99.90;;;;;;5015976;28;20193;-74
2022/01/26 07:42:58;;;;;;;11.27;7.13;;;1.20;99.90;;;;;;5016138;28;20545;-75
2022/01/26 07:45:24;;;;;;;10.87;7.17;;;1.20;99.90;;;;;;5016004;28;20928;-75
2022/01/26 07:47:53;;;;;;;10.70;8.93;;;1.20;99.90;;;;;;5015524;28;20174;-74
2022/01/26 07:50:20;;;;;;;16.17;10.93;;;1.20;99.90;;;;;;5015686;28;20183;-75
2022/01/26 07:52:46;;;;;;;19.25;9.77;;;1.30;99.90;;;;;;5016033;28;20566;-75
2022/01/26 07:55:16;;;;;;;13.83;8.67;;;1.20;99.90;;;;;;5015852;28;20181;-74
2022/01/26 07:57:43;;;;;;;19.48;9.38;;;1.20;99.90;;;;;;5014630;28;20598;-74
2022/01/26 08:00:11;;;;;;;12.93;7.88;;;1.20;99.90;;;;;;5015579;28;20183;-74
2022/01/26 08:02:36;;;;;;;15.63;7.65;;;1.30;99.90;;;;;;5014334;28;20707;-74
2022/01/26 08:05:03;;;;;;;20.70;10.67;;;1.30;99.90;;;;;;5015824;28;20182;-74
2022/01/26 08:07:29;;;;;;;14.80;9.85;;;1.40;99.90;;;;;;5015298;28;20179;-75
2022/01/26 08:09:54;;;;;;;12.77;8.73;;;1.40;99.90;;;;;;5015589;28;20194;-74
2022/01/26 08:12:21;;;;;;;14.93;10.00;;;1.40;99.90;;;;;;5015623;28;20200;-74
2022/01/26 08:14:47;;;;;;;11.60;8.38;;;1.50;99.90;;;;;;5015762;28;20167;-74
2022/01/26 08:17:16;;;;;;;13.55;10.50;;;1.40;99.90;;;;;;5015776;28;20204;-72
2022/01/26 08:19:42;;;;;;;9.27;6.30;;;1.40;99.90;;;;;;5014971;28;20221;-74
2022/01/26 08:22:11;;;;;;;15.03;7.73;;;1.40;99.90;;;;;;5015320;28;20175;-75
2022/01/26 08:24:37;;;;;;;12.00;8.60;;;1.50;99.90;;;;;;5015329;28;20432;-75
2022/01/26 08:27:10;;;;;;;20.40;8.60;;;1.50;99.90;;;;;;5013710;28;20228;-74
2022/01/26 08:29:46;;;;;;;15.55;10.32;;;1.50;99.90;;;;;;5014578;28;20285;-74
2022/01/26 08:32:12;;;;;;;15.88;9.45;;;1.50;99.90;;;;;;5015054;28;20190;-75
2022/01/26 08:34:38;;;;;;;23.07;9.77;;;1.50;99.90;;;;;;5015333;28;20171;-75
2022/01/26 08:37:04;;;;;;;16.67;9.57;;;1.50;99.90;;;;;;5015086;28;20198;-75
2022/01/26 08:39:30;;;;;;;11.65;8.77;;;1.50;99.90;;;;;;5014420;28;20487;-74
2022/01/26 08:41:58;;;;;;;11.83;8.03;;;1.60;99.90;;;;;;5014877;28;20261;-75
2022/01/26 08:44:24;;;;;;;18.25;12.10;;;1.60;99.90;;;;;;5015133;28;20425;-75
2022/01/26 08:46:51;;;;;;;11.37;7.50;;;1.60;99.90;;;;;;5030134;28;20526;-74
2022/01/26 08:49:17;;;;;;;15.65;8.20;;;1.70;99.90;;;;;;5014455;28;20202;-75
2022/01/26 08:51:42;;;;;;;14.53;7.97;;;1.70;99.90;;;;;;5013406;28;20202;-75
2022/01/26 08:54:10;;;;;;;25.50;9.30;;;1.70;99.90;;;;;;5014757;28;20433;-75
2022/01/26 08:56:37;;;;;;;16.45;8.25;;;1.70;99.90;;;;;;5014508;28;20163;-74
2022/01/26 08:59:03;;;;;;;23.60;10.05;;;1.70;99.90;;;;;;5014263;28;20183;-75
2022/01/26 09:01:29;;;;;;;17.25;9.90;;;1.80;99.90;;;;;;5029957;28;20198;-75
2022/01/26 09:03:55;;;;;;;17.00;9.60;;;1.70;99.90;;;;;;5014662;28;20198;-75
2022/01/26 09:06:21;;;;;;;11.77;8.63;;;1.70;99.90;;;;;;5014604;28;20406;-74
2022/01/26 09:08:53;;;;;;;27.98;12.43;;;1.60;99.90;;;;;;5013694;28;20441;-75
2022/01/26 09:11:22;;;;;;;14.20;8.20;;;1.60;99.90;;;;;;5013928;28;20221;-74
2022/01/26 09:13:55;;;;;;;19.35;9.18;;;1.60;99.90;;;;;;5014801;28;20248;-74
2022/01/26 09:16:23;;;;;;;12.23;9.77;;;1.70;99.90;;;;;;5014430;28;20225;-74
2022/01/26 09:18:52;;;;;;;18.98;9.55;;;1.70;99.90;;;;;;5013918;28;20253;-75
2022/01/26 09:21:19;;;;;;;14.35;11.10;;;1.70;99.90;;;;;;5014314;28;20167;-74
2022/01/26 09:23:45;;;;;;;19.90;10.52;;;1.60;99.90;;;;;;5014421;28;20561;-75
2022/01/26 09:26:11;;;;;;;19.88;8.55;;;1.60;99.90;;;;;;5014337;28;20292;-75
2022/01/26 09:28:37;;;;;;;18.20;8.32;;;1.60;99.90;;;;;;5013440;28;20568;-75
2022/01/26 09:31:03;;;;;;;12.32;8.20;;;1.60;99.90;;;;;;5012958;28;20671;-75
2022/01/26 09:33:29;;;;;;;23.83;8.82;;;1.60;99.90;;;;;;5013960;28;20602;-75
2022/01/26 09:35:54;;;;;;;20.77;15.13;;;1.50;99.90;;;;;;5014482;28;20206;-74
2022/01/26 09:38:20;;;;;;;15.47;9.33;;;1.50;99.90;;;;;;5013825;28;20167;-75
2022/01/26 09:40:47;;;;;;;27.17;8.30;;;1.50;99.90;;;;;;5012682;28;20425;-74
2022/01/26 09:43:14;;;;;;;10.02;6.22;;;1.50;99.90;;;;;;5013729;28;20439;-74
2022/01/26 09:45:40;;;;;;;14.10;8.15;;;1.50;99.90;;;;;;5013697;28;20213;-76
2022/01/26 09:48:06;;;;;;;11.67;8.80;;;1.50;99.90;;;;;;5013284;28;20526;-75
2022/01/26 09:50:33;;;;;;;13.07;10.45;;;1.50;99.90;;;;;;5013394;28;20964;-75
2022/01/26 09:52:59;;;;;;;13.95;8.88;;;1.60;99.90;;;;;;5013648;28;20194;-75
2022/01/26 09:55:25;;;;;;;15.63;10.57;;;1.60;99.90;;;;;;5013821;28;20246;-75
2022/01/26 09:57:57;;;;;;;11.23;7.10;;;1.70;99.90;;;;;;5011490;28;20179;-74
2022/01/26 10:00:24;;;;;;;12.77;8.85;;;1.70;99.90;;;;;;5013721;28;20281;-75
2022/01/26 10:03:03;;;;;;;15.73;9.55;;;1.70;99.90;;;;;;5028454;28;20637;-74
2022/01/26 10:05:45;;;;;;;16.70;10.40;;;1.70;99.90;;;;;;5012058;28;20177;-75
2022/01/26 10:08:27;;;;;;;10.00;7.53;;;1.70;99.90;;;;;;5027910;28;20209;-75
2022/01/26 10:19:06;;;;;;;17.40;8.73;;;1.80;99.90;;;;;;5013047;28;20187;-74
2022/01/26 10:21:32;;;;;;;9.77;7.25;;;1.80;99.90;;;;;;5015653;28;20198;-74
2022/01/26 10:24:07;;;;;;;14.85;9.18;;;1.80;99.90;;;;;;5017442;28;20167;-75
2022/01/26 10:26:33;;;;;;;13.18;6.82;;;1.90;99.90;;;;;;5016005;28;20181;-74
2022/01/26 10:29:00;;;;;;;22.23;9.67;;;1.90;99.90;;;;;;5017166;28;20274;-75
2022/01/26 10:31:39;;;;;;;28.15;11.80;;;2.00;99.90;;;;;;5017223;28;20198;-75
2022/01/26 10:34:08;;;;;;;19.23;8.15;;;2.00;99.90;;;;;;5015827;28;20179;-74
2022/01/26 10:36:44;;;;;;;12.18;8.95;;;2.10;99.90;;;;;;5017170;28;20174;-73
2022/01/26 10:39:27;;;;;;;13.00;10.18;;;2.10;99.90;;;;;;5016820;28;20194;-74
2022/01/26 10:41:56;;;;;;;16.23;10.02;;;2.10;99.90;;;;;;5017079;28;20159;-73
2022/01/26 10:44:41;;;;;;;17.85;9.50;;;2.10;99.90;;;;;;5017034;28;20174;-73
2022/01/26 10:47:08;;;;;;;8.93;6.00;;;2.20;99.90;;;;;;5016928;28;20303;-73
2022/01/26 10:52:34;;;;;;;9.07;7.65;;;2.20;99.90;;;;;;5016785;28;20474;-75
2022/01/26 10:55:01;;;;;;;17.15;7.50;;;2.30;99.90;;;;;;5017274;28;20167;-75
2022/01/26 10:57:26;;;;;;;14.32;8.15;;;2.40;99.90;;;;;;5016412;28;20182;-74
2022/01/26 10:59:52;;;;;;;10.10;9.10;;;2.30;99.90;;;;;;5016739;28;20186;-75
2022/01/26 11:02:25;;;;;;;23.23;11.65;;;2.30;99.90;;;;;;5017049;28;20257;-74
2022/01/26 11:04:50;;;;;;;17.42;8.25;;;2.30;99.90;;;;;;5016985;28;20249;-74
2022/01/26 11:07:17;;;;;;;14.50;9.97;;;2.20;99.90;;;;;;5016752;28;20217;-76
2022/01/26 11:09:45;;;;;;;11.13;8.30;;;2.10;99.90;;;;;;5015964;28;20445;-75
2022/01/26 11:12:14;;;;;;;15.40;7.68;;;2.10;99.90;;;;;;5015721;28;20195;-73
2022/01/26 11:14:49;;;;;;;12.30;9.43;;;2.00;99.90;;;;;;5016605;28;20171;-75
2022/01/26 11:17:36;;;;;;;11.88;7.13;;;2.00;99.90;;;;;;5016516;28;20186;-73
2022/01/26 11:20:17;;;;;;;24.02;9.52;;;1.90;99.90;;;;;;5016540;28;20183;-75
2022/01/26 11:22:55;;;;;;;20.88;12.65;;;1.80;99.90;;;;;;5015859;28;20265;-75
2022/01/26 11:25:23;;;;;;;26.08;10.75;;;1.80;99.90;;;;;;5016588;28;20182;-74
2022/01/26 11:27:52;;;;;;;24.40;8.90;;;1.80;99.90;;;;;;5014376;28;20580;-73
2022/01/26 11:30:27;;;;;;;11.85;5.90;;;1.80;99.90;;;;;;5016233;28;20654;-74
2022/01/26 11:32:58;;;;;;;15.35;8.27;;;1.90;99.90;;;;;;5015426;28;20230;-76
2022/01/26 11:35:27;;;;;;;12.57;7.75;;;1.90;99.90;;;;;;5016418;28;20194;-73
2022/01/26 11:47:30;;;;;;;17.90;5.63;;;1.80;99.90;;;;;;5016670;28;20541;-73
2022/01/26 11:50:22;;;;;;;9.20;6.32;;;1.70;99.90;;;;;;5015920;28;20657;-72
2022/01/26 11:53:23;;;;;;;17.45;8.68;;;1.60;99.90;;;;;;5015097;28;20225;-74
2022/01/26 11:55:58;;;;;;;16.95;8.88;;;1.60;99.90;;;;;;5012005;28;20218;-71
2022/01/26 11:58:34;;;;;;;9.98;7.25;;;1.60;99.90;;;;;;5014242;28;20182;-74
2022/01/26 12:01:29;;;;;;;12.85;6.07;;;1.60;99.90;;;;;;5015827;28;20162;-73
2022/01/26 12:04:00;;;;;;;18.83;7.65;;;1.50;99.90;;;;;;5015963;28;20206;-74
2022/01/26 12:06:30;;;;;;;12.50;6.13;;;1.60;99.90;;;;;;5016155;28;20183;-74
2022/01/26 12:08:58;;;;;;;11.48;4.65;;;1.60;99.90;;;;;;5014766;28;20198;-73
2022/01/26 12:11:25;;;;;;;6.70;5.25;;;1.40;99.90;;;;;;5015435;28;20175;-72
2022/01/26 12:14:02;;;;;;;13.60;7.35;;;1.50;99.90;;;;;;5015112;28;20348;-74
2022/01/26 12:16:41;;;;;;;22.52;8.85;;;1.50;99.90;;;;;;5014883;28;20572;-72
2022/01/26 12:19:24;;;;;;;10.57;6.05;;;1.50;99.90;;;;;;5014903;28;20182;-75
2022/01/26 12:35:59;;;;;;;9.77;6.70;;;1.80;99.90;;;;;;5014094;28;20578;-74
2022/01/26 12:38:47;;;;;;;10.18;5.63;;;1.70;99.90;;;;;;5014604;28;20178;-73
2022/01/26 12:41:31;;;;;;;12.48;6.00;;;1.80;99.90;;;;;;5015146;28;20173;-72
2022/01/26 12:44:07;;;;;;;9.57;5.57;;;1.80;99.90;;;;;;5013465;28;20522;-73
2022/01/26 12:46:34;;;;;;;8.52;6.32;;;1.80;99.90;;;;;;5014474;28;20732;-73
2022/01/26 12:49:04;;;;;;;17.65;6.70;;;1.80;99.90;;;;;;5029647;28;20202;-72
2022/01/26 12:51:32;;;;;;;17.75;7.30;;;1.70;99.90;;;;;;5014447;28;20187;-72
2022/01/26 12:54:01;;;;;;;9.68;6.88;;;1.80;99.90;;;;;;5014660;28;20553;-72
2022/01/26 12:56:29;;;;;;;12.98;5.57;;;1.80;99.90;;;;;;5014538;28;20645;-73
2022/01/26 12:59:17;;;;;;;9.18;5.35;;;1.80;99.90;;;;;;5014184;28;20191;-71
2022/01/26 13:01:45;;;;;;;12.70;5.95;;;1.80;99.90;;;;;;5014737;28;20183;-73
2022/01/26 13:04:18;;;;;;;12.70;7.80;;;1.80;99.90;;;;;;5014605;28;20178;-72
2022/01/26 13:06:52;;;;;;;12.40;7.00;;;1.80;99.90;;;;;;5013352;28;20180;-73
2022/01/26 13:09:21;;;;;;;12.35;8.00;;;1.70;99.90;;;;;;5014192;28;20191;-73
2022/01/26 13:11:49;;;;;;;7.43;5.88;;;1.70;99.90;;;;;;5014277;28;20166;-74
2022/01/26 13:14:33;;;;;;;9.57;6.10;;;1.70;99.90;;;;;;5013981;28;20522;-73
2022/01/26 13:20:13;;;;;;;16.58;7.72;;;1.80;99.90;;;;;;5014022;28;20214;-72
2022/01/26 13:33:30;;;;;;;12.55;6.90;;;1.80;99.90;;;;;;5013789;28;20530;-72
2022/01/26 13:36:06;;;;;;;8.85;5.70;;;1.70;99.90;;;;;;5012753;28;20210;-74
2022/01/26 13:41:22;;;;;;;12.60;7.03;;;1.60;99.90;;;;;;5011810;28;20178;-73
2022/01/26 13:47:06;;;;;;;9.52;4.82;;;1.50;99.90;;;;;;5011602;28;20675;-73
2022/01/26 13:49:40;;;;;;;6.40;5.40;;;1.50;99.90;;;;;;5011103;28;20207;-73
2022/01/26 13:59:53;;;;;;;9.32;8.32;;;1.40;99.90;;;;;;5013363;28;20285;-71
2022/01/26 14:02:19;;;;;;;7.40;6.00;;;1.40;99.90;;;;;;5013703;28;20173;-73
2022/01/26 14:04:45;;;;;;;9.43;5.40;;;1.30;99.90;;;;;;5028676;28;20178;-72
2022/01/26 14:07:10;;;;;;;6.90;4.50;;;1.30;99.90;;;;;;5013780;28;20167;-72
2022/01/26 14:09:37;;;;;;;6.40;4.57;;;1.30;99.90;;;;;;5013142;28;20195;-73
2022/01/26 14:12:05;;;;;;;8.65;4.80;;;1.20;99.90;;;;;;5013720;28;20190;-73
2022/01/26 14:14:35;;;;;;;9.07;5.55;;;1.20;99.90;;;;;;5014005;28;20174;-70
2022/01/26 14:17:03;;;;;;;6.88;5.88;;;1.20;99.90;;;;;;5034610;28;20182;-71
2022/01/26 14:19:56;;;;;;;12.07;6.50;;;1.10;99.90;;;;;;5019763;28;20521;-71
2022/01/26 14:27:51;;;;;;;10.50;4.95;;;1.00;99.90;;;;;;5012875;28;20174;-73
2022/01/26 14:30:45;;;;;;;13.20;7.63;;;1.00;99.90;;;;;;5013248;28;20189;-72
2022/01/26 15:30:32;;;;;;;12.80;5.97;;;0.70;99.90;;;;;;5014413;28;20217;-73
2022/01/26 16:04:22;;;;;;;5.65;5.15;;;0.80;99.90;;;;;;5015714;28;20197;-72
2022/01/26 16:05:53;;;;;;;13.48;4.63;;;0.80;99.90;;;;;;5015706;28;20186;-73
2022/01/26 16:20:00;;;;;;;5.55;4.28;;;0.80;99.90;;;;;;5015424;28;20253;-71
2022/01/26 16:38:33;;;;;;;8.10;4.60;;;0.70;99.90;;;;;;5014963;28;20173;-74
2022/01/26 17:11:23;;;;;;;7.13;5.93;;;0.80;99.90;;;;;;5014829;28;20645;-71
2022/01/26 17:25:39;;;;;;;6.27;3.83;;;0.70;99.90;;;;;;5014607;28;20634;-72
2022/01/26 17:43:17;;;;;;;10.93;6.07;;;0.70;99.90;;;;;;5017438;28;20588;-71
2022/01/26 17:46:40;;;;;;;6.40;5.57;;;0.80;99.90;;;;;;5018789;28;20205;-73
2022/01/26 17:46:52;;;;;;;22.65;7.43;;;0.80;99.90;;;;;;5015266;28;20175;-73
2022/01/26 18:16:44;;;;;;;6.22;4.97;;;0.80;99.90;;;;;;5010321;28;20177;-73
2022/01/26 18:33:06;;;;;;;6.65;5.78;;;0.70;99.90;;;;;;4991788;28;20194;-74
2022/01/26 18:38:53;;;;;;;6.07;5.38;;;0.70;99.90;;;;;;4960588;28;20497;-73
2022/01/26 18:46:57;;;;;;;16.00;7.30;;;0.80;99.90;;;;;;4977111;28;20258;-72
2022/01/26 18:49:24;;;;;;;7.45;5.55;;;0.80;99.90;;;;;;4974555;28;20289;-77
2022/01/26 18:51:53;;;;;;;12.20;4.53;;;0.70;99.90;;;;;;4995346;28;20665;-73
2022/01/26 18:54:21;;;;;;;4.63;4.30;;;0.70;99.90;;;;;;4994936;28;20222;-74
2022/01/26 18:56:48;;;;;;;9.32;6.82;;;0.70;99.90;;;;;;4995334;28;20517;-73
2022/01/26 18:59:15;;;;;;;9.00;5.60;;;0.70;99.90;;;;;;4978219;28;20236;-73
2022/01/26 19:01:41;;;;;;;4.68;4.13;;;0.70;99.90;;;;;;4962986;28;20175;-73
2022/01/26 19:04:07;;;;;;;11.25;6.55;;;0.70;99.90;;;;;;4990129;28;20211;-73
2022/01/26 19:06:33;;;;;;;11.50;6.03;;;0.70;99.90;;;;;;5001590;28;20222;-71
2022/01/26 19:08:59;;;;;;;8.02;6.22;;;0.70;99.90;;;;;;5015806;28;20441;-72
2022/01/26 19:11:25;;;;;;;7.80;4.37;;;0.70;99.90;;;;;;5016946;28;20208;-72
2022/01/26 19:13:51;;;;;;;9.48;5.88;;;0.70;99.90;;;;;;5016167;28;20198;-72
2022/01/26 19:16:31;;;;;;;14.45;4.50;;;0.70;99.90;;;;;;5015710;28;20175;-72
2022/01/26 19:19:15;;;;;;;10.75;6.43;;;0.70;99.90;;;;;;5016041;28;20198;-75
2022/01/26 19:21:55;;;;;;;11.40;5.95;;;0.70;99.90;;;;;;5016711;28;20177;-72